createdAt,value
2018-09-02T00:00:55.342Z,13.50
2018-09-02T00:03:23.452Z,13.50
2018-09-02T00:05:51.546Z,13.40
2018-09-02T00:08:19.676Z,13.20
2018-09-02T00:10:47.787Z,13.30
2018-09-02T00:13:15.893Z,13.30
2018-09-02T00:15:44.011Z,13.30
2018-09-02T00:18:12.135Z,13.40
2018-09-02T00:20:40.262Z,13.50
2018-09-02T00:23:08.405Z,13.40
2018-09-02T00:25:36.500Z,13.40
2018-09-02T00:28:04.952Z,13.50
2018-09-02T00:30:33.071Z,13.50
2018-09-02T00:33:01.244Z,13.50
2018-09-02T00:35:29.280Z,13.50
2018-09-02T00:37:57.392Z,13.50
2018-09-02T00:40:25.489Z,13.50
2018-09-02T00:42:53.598Z,13.50
2018-09-02T00:45:22.125Z,13.50
2018-09-02T00:47:50.238Z,13.50
2018-09-02T00:50:18.350Z,13.50
2018-09-02T00:52:46.497Z,13.40
2018-09-02T00:55:14.602Z,13.50
2018-09-02T00:57:42.700Z,13.50
2018-09-02T01:00:10.824Z,13.50
2018-09-02T01:02:38.920Z,13.60
2018-09-02T01:05:07.020Z,13.60
2018-09-02T01:07:35.179Z,13.50
2018-09-02T01:10:03.272Z,13.60
2018-09-02T01:12:31.372Z,13.60
2018-09-02T01:14:59.501Z,13.60
2018-09-02T01:17:27.599Z,13.60
2018-09-02T01:19:55.691Z,13.60
2018-09-02T01:22:23.805Z,13.60
2018-09-02T01:24:51.910Z,13.70
2018-09-02T01:27:20.013Z,13.80
2018-09-02T01:29:48.120Z,13.80
2018-09-02T01:32:16.223Z,13.80
2018-09-02T01:34:44.373Z,13.80
2018-09-02T01:37:12.466Z,13.90
2018-09-02T01:39:40.643Z,13.90
2018-09-02T01:42:08.756Z,14.00
2018-09-02T01:44:36.852Z,14.00
2018-09-02T01:47:04.947Z,14.00
2018-09-02T01:49:33.038Z,14.00
2018-09-02T01:52:01.137Z,14.10
2018-09-02T01:54:29.253Z,14.10
2018-09-02T01:56:57.366Z,14.10
2018-09-02T01:59:25.455Z,14.20
2018-09-02T02:01:53.563Z,14.20
2018-09-02T02:04:21.673Z,14.20
2018-09-02T02:06:49.786Z,14.20
2018-09-02T02:09:17.880Z,14.30
2018-09-02T02:11:46.003Z,14.30
2018-09-02T02:14:14.097Z,14.30
2018-09-02T02:16:42.210Z,14.30
2018-09-02T02:19:10.317Z,14.30
2018-09-02T02:21:38.407Z,14.30
2018-09-02T02:24:06.538Z,14.30
2018-09-02T02:26:34.649Z,14.40
2018-09-02T02:29:02.722Z,14.30
2018-09-02T02:31:30.824Z,14.30
2018-09-02T02:33:58.956Z,14.30
2018-09-02T02:36:27.072Z,14.40
2018-09-02T02:38:55.177Z,14.40
2018-09-02T02:41:23.358Z,14.40
2018-09-02T02:43:51.482Z,14.40
2018-09-02T02:46:19.611Z,14.40
2018-09-02T02:48:47.731Z,14.40
2018-09-02T02:51:15.834Z,14.40
2018-09-02T02:53:43.923Z,14.40
2018-09-02T02:56:12.016Z,14.40
2018-09-02T02:58:40.108Z,14.30
2018-09-02T03:01:08.219Z,14.30
2018-09-02T03:03:36.300Z,14.40
2018-09-02T03:06:04.397Z,14.40
2018-09-02T03:08:32.501Z,14.40
2018-09-02T03:11:00.623Z,14.40
2018-09-02T03:13:28.735Z,14.40
2018-09-02T03:15:56.842Z,14.40
2018-09-02T03:18:24.939Z,14.50
2018-09-02T03:20:53.061Z,14.50
2018-09-02T03:23:21.157Z,14.40
2018-09-02T03:25:49.259Z,14.40
2018-09-02T03:28:17.345Z,14.40
2018-09-02T03:30:45.453Z,14.40
2018-09-02T03:33:13.552Z,14.40
2018-09-02T03:35:41.639Z,14.40
2018-09-02T03:38:09.736Z,14.40
2018-09-02T03:40:37.828Z,14.30
2018-09-02T03:43:06.024Z,14.40
2018-09-02T03:45:34.296Z,14.40
2018-09-02T03:48:02.459Z,14.40
2018-09-02T03:50:30.608Z,14.40
2018-09-02T03:52:58.812Z,14.30
2018-09-02T03:55:26.892Z,14.30
2018-09-02T03:57:54.992Z,14.30
2018-09-02T04:00:23.079Z,14.30
2018-09-02T04:02:51.192Z,14.30
2018-09-02T04:05:19.272Z,14.30
2018-09-02T04:07:47.388Z,14.20
2018-09-02T04:10:15.472Z,14.20
2018-09-02T04:12:43.573Z,14.20
2018-09-02T04:15:11.668Z,14.20
2018-09-02T04:17:39.776Z,14.20
2018-09-02T04:20:08.140Z,14.20
2018-09-02T04:22:36.239Z,14.20
2018-09-02T04:25:04.451Z,14.10
2018-09-02T04:27:32.536Z,14.20
2018-09-02T04:30:00.651Z,14.20
2018-09-02T04:32:28.762Z,14.20
2018-09-02T04:34:56.855Z,14.20
2018-09-02T04:37:24.952Z,14.10
2018-09-02T04:39:53.108Z,14.20
2018-09-02T04:42:21.211Z,14.20
2018-09-02T04:44:49.348Z,14.20
2018-09-02T04:47:17.443Z,14.30
2018-09-02T04:49:45.532Z,14.40
2018-09-02T04:52:13.668Z,14.30
2018-09-02T04:54:41.760Z,14.30
2018-09-02T04:57:09.851Z,14.30
2018-09-02T04:59:37.946Z,14.30
2018-09-02T05:02:06.053Z,14.30
2018-09-02T05:04:34.143Z,14.30
2018-09-02T05:07:02.257Z,14.30
2018-09-02T05:09:30.381Z,14.40
2018-09-02T05:11:58.481Z,14.40
2018-09-02T05:14:26.577Z,14.40
2018-09-02T05:16:54.672Z,14.50
2018-09-02T05:19:22.764Z,14.50
2018-09-02T05:21:50.868Z,14.40
2018-09-02T05:24:18.971Z,14.40
2018-09-02T05:26:47.116Z,14.40
2018-09-02T05:29:15.212Z,14.40
2018-09-02T05:31:43.304Z,14.50
2018-09-02T05:34:11.400Z,14.50
2018-09-02T05:36:39.509Z,14.50
2018-09-02T05:39:09.135Z,14.60
2018-09-02T05:41:37.220Z,14.60
2018-09-02T05:44:05.451Z,14.70
2018-09-02T05:46:33.765Z,14.80
2018-09-02T05:49:02.137Z,14.80
2018-09-02T05:51:30.227Z,14.90
2018-09-02T05:53:58.352Z,15.00
2018-09-02T05:56:26.440Z,15.10
2018-09-02T05:58:54.554Z,15.20
2018-09-02T06:01:22.710Z,15.20
2018-09-02T06:03:50.837Z,15.30
2018-09-02T06:06:18.935Z,15.30
2018-09-02T06:08:47.039Z,15.30
2018-09-02T06:11:15.124Z,15.40
2018-09-02T06:13:43.221Z,15.50
2018-09-02T06:16:11.312Z,15.50
2018-09-02T06:18:39.512Z,15.60
2018-09-02T06:21:07.628Z,15.70
2018-09-02T06:23:35.718Z,15.80
2018-09-02T06:26:03.803Z,15.70
2018-09-02T06:28:31.917Z,15.70
2018-09-02T06:31:00.040Z,15.80
2018-09-02T06:33:28.144Z,15.90
2018-09-02T06:35:56.235Z,16.00
2018-09-02T06:38:24.621Z,16.20
2018-09-02T06:40:52.709Z,16.20
2018-09-02T06:43:20.816Z,16.40
2018-09-02T06:45:48.971Z,16.60
2018-09-02T06:48:18.854Z,16.70
2018-09-02T06:50:47.326Z,16.80
2018-09-02T06:53:15.468Z,16.80
2018-09-02T06:55:43.893Z,17.00
2018-09-02T06:58:12.612Z,16.90
2018-09-02T07:00:40.795Z,17.00
2018-09-02T07:03:08.973Z,17.10
2018-09-02T07:05:39.872Z,17.10
2018-09-02T07:08:09.375Z,17.20
2018-09-02T07:10:37.525Z,17.20
2018-09-02T07:13:05.645Z,17.40
2018-09-02T07:15:33.760Z,17.50
2018-09-02T07:18:02.175Z,17.60
2018-09-02T07:20:30.285Z,17.80
2018-09-02T07:22:58.412Z,17.80
2018-09-02T07:25:26.541Z,17.80
2018-09-02T07:27:54.664Z,18.00
2018-09-02T07:30:22.776Z,18.10
2018-09-02T07:32:50.889Z,18.20
2018-09-02T07:35:19.048Z,18.30
2018-09-02T07:37:47.146Z,18.40
2018-09-02T07:40:15.620Z,18.60
2018-09-02T07:42:43.717Z,18.80
2018-09-02T07:45:12.520Z,18.80
2018-09-02T07:47:40.676Z,18.90
2018-09-02T07:50:08.796Z,19.00
2018-09-02T07:52:36.906Z,19.00
2018-09-02T07:55:05.813Z,19.10
2018-09-02T07:57:33.976Z,19.20
2018-09-02T08:00:02.129Z,19.40
2018-09-02T08:02:30.305Z,19.30
2018-09-02T08:04:58.497Z,19.40
2018-09-02T08:07:26.618Z,19.30
2018-09-02T08:09:54.735Z,19.40
2018-09-02T08:12:22.899Z,19.60
2018-09-02T08:14:50.955Z,19.70
2018-09-02T08:17:19.088Z,20.00
2018-09-02T08:19:47.545Z,20.00
2018-09-02T08:22:15.585Z,20.00
2018-09-02T08:24:43.680Z,20.10
2018-09-02T08:27:11.786Z,20.10
2018-09-02T08:29:39.893Z,20.20
2018-09-02T08:32:07.988Z,20.20
2018-09-02T08:34:36.103Z,20.30
2018-09-02T08:37:04.197Z,20.40
2018-09-02T08:39:32.294Z,20.40
2018-09-02T08:42:00.416Z,20.70
2018-09-02T08:44:28.512Z,21.00
2018-09-02T08:46:56.636Z,21.00
2018-09-02T08:49:24.712Z,21.10
2018-09-02T08:51:52.816Z,21.10
2018-09-02T08:54:20.901Z,21.10
2018-09-02T08:56:49.006Z,21.00
2018-09-02T08:59:17.102Z,21.00
2018-09-02T09:01:45.379Z,20.90
2018-09-02T09:04:13.460Z,20.70
2018-09-02T09:06:41.630Z,20.60
2018-09-02T09:09:09.763Z,20.60
2018-09-02T09:11:37.821Z,20.60
2018-09-02T09:14:05.975Z,20.70
2018-09-02T09:16:34.074Z,20.70
2018-09-02T09:19:02.164Z,20.60
2018-09-02T09:21:30.286Z,20.70
2018-09-02T09:23:58.390Z,20.80
2018-09-02T09:26:26.479Z,21.00
2018-09-02T09:28:54.592Z,21.00
2018-09-02T09:31:22.706Z,21.00
2018-09-02T09:33:50.811Z,21.00
2018-09-02T09:36:18.932Z,21.00
2018-09-02T09:38:47.030Z,21.00
2018-09-02T09:41:15.262Z,20.90
2018-09-02T09:43:43.361Z,21.00
2018-09-02T09:46:11.448Z,21.10
2018-09-02T09:48:40.024Z,21.20
2018-09-02T09:51:08.907Z,21.30
2018-09-02T09:53:37.028Z,21.30
2018-09-02T09:56:05.124Z,21.40
2018-09-02T09:58:33.221Z,21.30
2018-09-02T10:01:01.325Z,21.30
2018-09-02T10:03:29.425Z,21.20
2018-09-02T10:05:57.502Z,21.30
2018-09-02T10:08:25.612Z,21.30
2018-09-02T10:10:53.730Z,21.40
2018-09-02T10:13:21.811Z,21.50
2018-09-02T10:15:49.896Z,21.60
2018-09-02T10:18:18.064Z,21.60
2018-09-02T10:20:46.078Z,21.70
2018-09-02T10:23:14.185Z,21.80
2018-09-02T10:25:42.282Z,21.80
2018-09-02T10:28:10.367Z,21.80
2018-09-02T10:30:38.472Z,21.80
2018-09-02T10:33:06.596Z,21.80
2018-09-02T10:35:34.675Z,21.70
2018-09-02T10:38:02.785Z,21.70
2018-09-02T10:40:30.870Z,21.60
2018-09-02T10:42:58.983Z,21.70
2018-09-02T10:45:27.076Z,21.70
2018-09-02T10:47:55.163Z,21.80
2018-09-02T10:50:23.262Z,21.80
2018-09-02T10:52:51.377Z,21.90
2018-09-02T10:55:19.508Z,21.80
2018-09-02T10:57:47.603Z,21.80
2018-09-02T11:00:15.688Z,21.90
2018-09-02T11:02:43.796Z,22.00
2018-09-02T11:05:11.885Z,22.10
2018-09-02T11:07:40.037Z,22.00
2018-09-02T11:10:08.103Z,22.00
2018-09-02T11:12:36.217Z,22.00
2018-09-02T11:15:04.428Z,22.00
2018-09-02T11:17:32.534Z,22.00
2018-09-02T11:20:00.617Z,22.00
2018-09-02T11:22:28.729Z,22.10
2018-09-02T11:24:56.828Z,22.20
2018-09-02T11:27:24.933Z,22.30
2018-09-02T11:29:53.028Z,22.20
2018-09-02T11:32:21.136Z,22.20
2018-09-02T11:34:49.268Z,22.20
2018-09-02T11:37:17.399Z,22.30
2018-09-02T11:39:45.671Z,22.40
2018-09-02T11:42:13.759Z,22.50
2018-09-02T11:44:41.848Z,22.40
2018-09-02T11:47:09.948Z,22.60
2018-09-02T11:49:38.049Z,22.60
2018-09-02T11:52:06.172Z,22.60
2018-09-02T11:54:34.258Z,22.50
2018-09-02T11:57:02.354Z,22.60
2018-09-02T11:59:30.440Z,22.60
2018-09-02T12:01:58.541Z,22.50
2018-09-02T12:04:26.654Z,22.60
2018-09-02T12:06:54.756Z,22.50
2018-09-02T12:09:22.866Z,22.50
2018-09-02T12:11:50.982Z,22.50
2018-09-02T12:14:19.083Z,22.50
2018-09-02T12:16:47.158Z,22.40
2018-09-02T12:21:49.895Z,22.30
2018-09-02T12:24:18.289Z,22.30
2018-09-02T12:26:46.392Z,22.30
2018-09-02T12:29:14.483Z,22.10
2018-09-02T12:31:43.104Z,22.00
2018-09-02T12:34:11.211Z,21.90
2018-09-02T12:36:39.311Z,21.90
2018-09-02T12:39:07.627Z,21.80
2018-09-02T12:41:35.733Z,21.80
2018-09-02T12:44:03.844Z,21.90
2018-09-02T12:46:32.004Z,21.90
2018-09-02T12:49:00.119Z,21.90
2018-09-02T12:51:28.222Z,21.90
2018-09-02T12:53:56.364Z,21.80
2018-09-02T12:56:24.467Z,21.70
2018-09-02T12:58:52.694Z,21.60
2018-09-02T13:01:20.938Z,21.70
2018-09-02T13:03:48.904Z,21.60
2018-09-02T13:06:17.112Z,21.50
2018-09-02T13:08:45.216Z,21.50
2018-09-02T13:11:13.309Z,21.60
2018-09-02T13:13:41.412Z,21.70
2018-09-02T13:16:09.506Z,21.70
2018-09-02T13:18:37.604Z,21.70
2018-09-02T13:21:05.711Z,21.70
2018-09-02T13:23:33.807Z,21.60
2018-09-02T13:26:02.024Z,21.50
2018-09-02T13:28:30.171Z,21.50
2018-09-02T13:30:58.300Z,21.50
2018-09-02T13:33:26.421Z,21.40
2018-09-02T13:35:54.574Z,21.30
2018-09-02T13:38:22.682Z,21.30
2018-09-02T13:40:50.771Z,21.20
2018-09-02T13:43:18.930Z,21.00
2018-09-02T13:45:46.971Z,21.00
2018-09-02T13:48:15.087Z,20.90
2018-09-02T13:50:43.149Z,20.60
2018-09-02T13:53:11.253Z,20.40
2018-09-02T13:55:39.367Z,20.40
2018-09-02T13:58:07.463Z,20.20
2018-09-02T14:00:35.601Z,20.00
2018-09-02T14:03:03.693Z,19.90
2018-09-02T14:05:31.783Z,19.80
2018-09-02T14:07:59.961Z,19.80
2018-09-02T14:10:28.021Z,19.80
2018-09-02T14:12:56.111Z,19.80
2018-09-02T14:15:24.199Z,19.60
2018-09-02T14:17:52.320Z,19.50
2018-09-02T14:20:20.417Z,19.40
2018-09-02T14:22:48.500Z,19.40
2018-09-02T14:25:16.673Z,19.40
2018-09-02T14:27:44.851Z,19.50
2018-09-02T14:30:12.976Z,19.60
2018-09-02T14:32:41.074Z,19.60
2018-09-02T14:35:09.172Z,19.60
2018-09-02T14:37:37.275Z,19.70
2018-09-02T14:40:05.443Z,19.70
2018-09-02T14:42:33.528Z,19.70
2018-09-02T14:45:01.665Z,19.60
2018-09-02T14:47:29.829Z,19.70
2018-09-02T14:49:58.035Z,19.50
2018-09-02T14:52:26.128Z,19.60
2018-09-02T14:54:54.251Z,19.80
2018-09-02T14:57:22.348Z,19.80
2018-09-02T14:59:50.454Z,19.70
2018-09-02T15:02:18.565Z,19.70
2018-09-02T15:04:46.655Z,19.80
2018-09-02T15:07:14.795Z,19.70
2018-09-02T15:09:42.967Z,19.80
2018-09-02T15:12:11.064Z,19.90
2018-09-02T15:14:39.172Z,19.90
2018-09-02T15:17:07.264Z,19.90
2018-09-02T15:19:35.354Z,19.90
2018-09-02T15:22:03.455Z,19.90
2018-09-02T15:24:31.549Z,19.90
2018-09-02T15:26:59.697Z,19.90
2018-09-02T15:29:28.848Z,19.80
2018-09-02T15:31:56.941Z,19.70
2018-09-02T15:34:25.065Z,19.70
2018-09-02T15:36:53.184Z,19.60
2018-09-02T15:39:21.301Z,19.60
2018-09-02T15:41:49.373Z,19.70
2018-09-02T15:44:17.475Z,19.70
2018-09-02T15:46:45.574Z,19.70
2018-09-02T15:49:13.668Z,19.70
2018-09-02T15:51:41.781Z,19.80
2018-09-02T15:54:09.873Z,19.90
2018-09-02T15:56:37.973Z,19.90
2018-09-02T15:59:06.047Z,19.90
2018-09-02T16:01:34.175Z,19.90
2018-09-02T16:04:02.295Z,19.90
2018-09-02T16:06:30.491Z,19.90
2018-09-02T16:08:58.530Z,19.90
2018-09-02T16:11:26.654Z,20.00
2018-09-02T16:13:54.775Z,19.90
2018-09-02T16:16:22.880Z,19.90
2018-09-02T16:18:50.968Z,19.80
2018-09-02T16:21:19.088Z,19.60
2018-09-02T16:23:47.171Z,19.60
2018-09-02T16:26:15.391Z,19.60
2018-09-02T16:28:43.484Z,19.60
2018-09-02T16:31:11.588Z,19.70
2018-09-02T16:33:39.697Z,19.70
2018-09-02T16:36:07.795Z,19.70
2018-09-02T16:38:35.896Z,19.60
2018-09-02T16:41:03.998Z,19.50
2018-09-02T16:43:32.115Z,19.60
2018-09-02T16:46:00.224Z,19.60
2018-09-02T16:48:28.336Z,19.60
2018-09-02T16:50:56.437Z,19.70
2018-09-02T16:53:25.020Z,19.70
2018-09-02T16:55:53.115Z,19.70
2018-09-02T16:58:21.353Z,19.80
2018-09-02T17:00:49.392Z,19.70
2018-09-02T17:03:17.500Z,19.70
2018-09-02T17:05:45.597Z,19.70
2018-09-02T17:08:13.721Z,19.70
2018-09-02T17:10:41.936Z,19.60
2018-09-02T17:13:10.027Z,19.60
2018-09-02T17:15:38.238Z,19.60
2018-09-02T17:18:06.484Z,19.60
2018-09-02T17:20:38.789Z,19.60
2018-09-02T17:23:10.816Z,19.60
2018-09-02T17:25:39.318Z,19.50
2018-09-02T17:28:07.436Z,19.40
2018-09-02T17:30:35.983Z,19.50
2018-09-02T17:33:04.270Z,19.50
2018-09-02T17:35:32.383Z,19.50
2018-09-02T17:38:00.495Z,19.50
2018-09-02T17:40:30.212Z,19.50
2018-09-02T17:42:58.325Z,19.60
2018-09-02T17:45:26.428Z,19.60
2018-09-02T17:47:54.716Z,19.50
2018-09-02T17:50:22.912Z,19.60
2018-09-02T17:52:51.023Z,19.50
2018-09-02T17:55:19.127Z,19.50
2018-09-02T17:57:47.227Z,19.50
2018-09-02T18:00:18.487Z,19.50
2018-09-02T18:02:46.586Z,19.50
2018-09-02T18:05:14.691Z,19.50
2018-09-02T18:07:42.800Z,19.50
2018-09-02T18:10:10.894Z,19.50
2018-09-02T18:12:38.989Z,19.50
2018-09-02T18:15:07.160Z,19.50
2018-09-02T18:17:35.267Z,19.50
2018-09-02T18:20:03.583Z,19.50
2018-09-02T18:22:31.699Z,19.40
2018-09-02T18:24:59.792Z,19.30
2018-09-02T18:27:30.575Z,19.40
2018-09-02T18:29:59.472Z,19.30
2018-09-02T18:32:29.577Z,19.30
2018-09-02T18:34:58.401Z,19.30
2018-09-02T18:37:26.483Z,19.30
2018-09-02T18:39:55.150Z,19.40
2018-09-02T18:42:23.268Z,19.40
2018-09-02T18:44:51.600Z,19.40
2018-09-02T18:47:19.711Z,19.40
2018-09-02T18:49:47.812Z,19.40
2018-09-02T18:52:16.425Z,19.40
2018-09-02T18:54:44.552Z,19.30
2018-09-02T18:57:12.679Z,19.30
2018-09-02T18:59:40.773Z,19.40
2018-09-02T19:02:09.835Z,19.40
2018-09-02T19:04:38.000Z,19.40
2018-09-02T19:07:06.606Z,19.40
2018-09-02T19:09:34.762Z,19.40
2018-09-02T19:12:02.899Z,19.40
2018-09-02T19:14:31.017Z,19.30
2018-09-02T19:16:59.150Z,19.30
2018-09-02T19:19:27.269Z,19.30
2018-09-02T19:21:55.360Z,19.30
2018-09-02T19:24:23.469Z,19.30
2018-09-02T19:26:51.557Z,19.30
2018-09-02T19:29:19.652Z,19.20
2018-09-02T19:31:54.311Z,19.30
2018-09-02T19:34:22.404Z,19.20
2018-09-02T19:36:50.500Z,19.20
2018-09-02T19:39:18.603Z,19.30
2018-09-02T19:41:46.693Z,19.20
2018-09-02T19:44:14.788Z,19.30
2018-09-02T19:46:42.926Z,19.30
2018-09-02T19:49:11.112Z,19.20
2018-09-02T19:51:39.191Z,19.20
2018-09-02T19:54:07.576Z,19.20
2018-09-02T19:56:35.687Z,19.30
2018-09-02T19:59:03.833Z,19.20
2018-09-02T20:01:31.936Z,19.20
2018-09-02T20:04:01.173Z,19.10
2018-09-02T20:06:29.326Z,19.20
2018-09-02T20:08:57.421Z,19.20
2018-09-02T20:11:25.535Z,19.20
2018-09-02T20:13:53.630Z,19.10
2018-09-02T20:16:21.824Z,19.00
2018-09-02T20:18:49.977Z,19.10
2018-09-02T20:21:18.830Z,19.10
2018-09-02T20:23:46.966Z,19.10
2018-09-02T20:26:15.020Z,19.10
2018-09-02T20:28:43.111Z,19.20
2018-09-02T20:31:11.223Z,19.20
2018-09-02T20:33:39.321Z,19.20
2018-09-02T20:36:07.439Z,19.20
2018-09-02T20:38:35.739Z,19.10
2018-09-02T20:41:03.842Z,19.00
2018-09-02T20:43:32.039Z,18.90
2018-09-02T20:46:00.145Z,18.90
2018-09-02T20:48:28.237Z,18.90
2018-09-02T20:50:56.400Z,18.90
2018-09-02T20:53:24.434Z,18.90
2018-09-02T20:55:52.530Z,19.00
2018-09-02T20:58:20.626Z,18.90
2018-09-02T21:00:48.723Z,19.00
2018-09-02T21:03:16.880Z,18.90
2018-09-02T21:05:44.988Z,19.00
2018-09-02T21:08:13.135Z,18.90
2018-09-02T21:10:41.195Z,18.90
2018-09-02T21:13:09.281Z,18.90
2018-09-02T21:15:37.377Z,18.90
2018-09-02T21:18:05.470Z,18.80
2018-09-02T21:20:33.558Z,18.70
2018-09-02T21:23:01.666Z,18.70
2018-09-02T21:25:29.782Z,18.60
2018-09-02T21:27:57.908Z,18.50
2018-09-02T21:30:26.009Z,18.50
2018-09-02T21:32:54.112Z,18.60
2018-09-02T21:35:22.295Z,18.70
2018-09-02T21:37:50.420Z,18.70
2018-09-02T21:40:18.621Z,18.70
2018-09-02T21:42:47.144Z,18.70
2018-09-02T21:45:15.337Z,18.70
2018-09-02T21:47:43.463Z,18.80
2018-09-02T21:50:11.892Z,18.70
2018-09-02T21:52:40.039Z,18.70
2018-09-02T21:55:08.353Z,18.80
2018-09-02T21:57:36.454Z,18.90
2018-09-02T22:00:05.773Z,18.80
2018-09-02T22:02:33.870Z,18.80
2018-09-02T22:05:01.965Z,18.80
2018-09-02T22:07:30.082Z,18.90
2018-09-02T22:09:58.217Z,18.90
2018-09-02T22:12:26.312Z,18.90
2018-09-02T22:14:54.391Z,18.90
2018-09-02T22:17:22.523Z,18.80
2018-09-02T22:19:50.684Z,18.80
2018-09-02T22:22:18.819Z,18.80
2018-09-02T22:24:46.913Z,18.80
2018-09-02T22:27:15.015Z,18.80
2018-09-02T22:29:43.101Z,18.80
2018-09-02T22:32:11.202Z,18.90
2018-09-02T22:34:39.310Z,18.90
2018-09-02T22:37:07.404Z,18.90
2018-09-02T22:39:35.507Z,18.90
2018-09-02T22:42:03.613Z,18.90
2018-09-02T22:44:31.703Z,18.90
2018-09-02T22:46:59.824Z,18.90
2018-09-02T22:49:27.911Z,18.80
2018-09-02T22:51:55.999Z,18.80
2018-09-02T22:54:24.097Z,18.80
2018-09-02T22:56:52.198Z,18.60
2018-09-02T22:59:20.301Z,18.50
2018-09-02T23:01:48.419Z,18.50
2018-09-02T23:04:16.508Z,18.60
2018-09-02T23:06:44.622Z,18.60
2018-09-02T23:09:12.764Z,18.60
2018-09-02T23:11:40.884Z,18.60
2018-09-02T23:14:08.992Z,18.60
2018-09-02T23:16:37.086Z,18.50
2018-09-02T23:19:05.203Z,18.50
2018-09-02T23:21:33.301Z,18.50
2018-09-02T23:24:01.408Z,18.50
2018-09-02T23:26:29.512Z,18.50
2018-09-02T23:28:57.680Z,18.40
2018-09-02T23:31:25.777Z,18.30
2018-09-02T23:33:53.895Z,18.10
2018-09-02T23:36:21.975Z,18.00
2018-09-02T23:38:50.123Z,18.10
2018-09-02T23:41:18.213Z,18.00
2018-09-02T23:43:46.312Z,18.00
2018-09-02T23:46:14.424Z,18.00
2018-09-02T23:48:42.541Z,17.90
2018-09-02T23:51:10.631Z,17.90
2018-09-02T23:53:38.743Z,18.00
2018-09-02T23:56:07.368Z,18.00
2018-09-02T23:58:35.472Z,18.10
